Time;durP1;ratioP1;P1;durP2;ratioP2;P2;SDS_P1;SDS_P2;PMS_P1;PMS_P2;Temp;Humidity;BMP_temperature;BMP_pressure;BME280_temperature;BME280_humidity;BME280_pressure;Samples;Min_cycle;Max_cycle;Signal;HPM_P1;HPM_P2
2024/01/11 00:01:46;;;;;;;31.35;20.92;;;-3.50;99.90;;;;;;5081957;28;20036;-61
2024/01/11 00:04:12;;;;;;;31.15;21.52;;;-3.50;99.90;;;;;;5082437;28;20040;-59
2024/01/11 00:06:45;;;;;;;30.85;21.08;;;-3.40;99.90;;;;;;5079944;28;20051;-61
2024/01/11 00:09:10;;;;;;;29.98;20.17;;;-3.50;99.90;;;;;;5082380;28;20066;-60
2024/01/11 00:11:36;;;;;;;32.13;21.60;;;-3.50;99.90;;;;;;5082243;28;20529;-60
2024/01/11 00:14:02;;;;;;;31.40;20.98;;;-3.60;99.90;;;;;;5082312;28;20032;-60
2024/01/11 00:16:28;;;;;;;32.67;21.15;;;-3.50;99.90;;;;;;5078016;28;20052;-60
2024/01/11 00:18:53;;;;;;;34.05;22.48;;;-3.60;99.90;;;;;;5081114;28;20556;-60
2024/01/11 00:21:19;;;;;;;30.95;21.05;;;-3.60;99.90;;;;;;5081565;28;20044;-60
2024/01/11 00:23:44;;;;;;;30.95;21.13;;;-3.70;99.90;;;;;;5081827;28;20032;-61
2024/01/11 00:26:13;;;;;;;30.50;20.35;;;-3.70;99.90;;;;;;5082947;28;20071;-60
2024/01/11 00:28:39;;;;;;;30.63;21.60;;;-3.70;99.90;;;;;;5079650;28;20075;-60
2024/01/11 00:31:05;;;;;;;32.42;21.90;;;-3.70;99.90;;;;;;5081437;28;20060;-61
2024/01/11 00:33:30;;;;;;;30.13;20.10;;;-3.70;99.90;;;;;;5078729;28;21457;-59
2024/01/11 00:35:56;;;;;;;32.33;20.92;;;-3.70;99.90;;;;;;5077910;28;20067;-60
2024/01/11 00:38:22;;;;;;;33.10;21.08;;;-3.70;99.90;;;;;;5082017;28;20423;-61
2024/01/11 00:40:48;;;;;;;32.15;21.60;;;-3.70;99.90;;;;;;5084920;28;20048;-60
2024/01/11 00:43:13;;;;;;;33.13;21.65;;;-3.80;99.90;;;;;;5085294;28;20035;-61
2024/01/11 00:45:39;;;;;;;32.78;20.92;;;-3.80;99.90;;;;;;5082351;28;20075;-61
2024/01/11 00:48:05;;;;;;;32.40;21.38;;;-3.80;99.90;;;;;;5065559;28;20139;-61
2024/01/11 00:50:31;;;;;;;31.42;20.83;;;-3.80;99.90;;;;;;5084651;28;20454;-60
2024/01/11 00:52:56;;;;;;;30.65;20.95;;;-3.80;99.90;;;;;;5083813;28;20048;-61
2024/01/11 00:55:22;;;;;;;35.78;22.02;;;-3.80;99.90;;;;;;5087465;28;20040;-61
2024/01/11 00:57:48;;;;;;;32.42;21.50;;;-3.80;99.90;;;;;;5083567;28;20040;-60
2024/01/11 01:00:14;;;;;;;32.08;20.60;;;-3.80;99.90;;;;;;5082663;28;20028;-60
2024/01/11 01:02:40;;;;;;;34.33;22.98;;;-3.80;99.90;;;;;;5082581;28;20547;-61
2024/01/11 01:05:06;;;;;;;31.52;21.25;;;-3.80;99.90;;;;;;5085354;28;20043;-61
2024/01/11 01:07:32;;;;;;;33.03;21.60;;;-3.80;99.90;;;;;;5085929;28;20043;-61
2024/01/11 01:09:58;;;;;;;33.10;20.85;;;-3.80;99.90;;;;;;5083711;28;20505;-61
2024/01/11 01:12:25;;;;;;;32.13;21.15;;;-3.80;99.90;;;;;;5083745;28;20039;-60
2024/01/11 01:14:51;;;;;;;34.63;21.88;;;-3.80;99.90;;;;;;5082769;28;20433;-60
2024/01/11 01:17:17;;;;;;;32.47;21.65;;;-3.80;99.90;;;;;;5064524;28;20052;-60
2024/01/11 01:19:43;;;;;;;32.72;21.52;;;-3.80;99.90;;;;;;5084897;28;20035;-61
2024/01/11 01:22:08;;;;;;;34.67;22.45;;;-3.90;99.90;;;;;;5082772;28;20344;-60
2024/01/11 01:24:34;;;;;;;33.70;22.25;;;-3.90;99.90;;;;;;5083350;28;20046;-61
2024/01/11 01:27:00;;;;;;;36.50;22.20;;;-3.90;99.90;;;;;;5066332;28;20056;-61
2024/01/11 01:29:26;;;;;;;34.47;22.45;;;-4.00;99.90;;;;;;5079124;28;20495;-61
2024/01/11 01:31:52;;;;;;;33.72;22.05;;;-4.00;99.90;;;;;;5064766;28;20498;-60
2024/01/11 01:34:19;;;;;;;34.00;22.13;;;-4.00;99.90;;;;;;5082463;28;20520;-61
2024/01/11 01:36:44;;;;;;;35.17;21.95;;;-4.00;99.90;;;;;;5084696;28;20028;-60
2024/01/11 01:39:11;;;;;;;35.30;21.45;;;-4.00;99.90;;;;;;5084857;28;20047;-60
2024/01/11 01:41:37;;;;;;;34.17;22.70;;;-4.00;99.90;;;;;;5083617;28;20040;-61
2024/01/11 01:44:02;;;;;;;33.50;21.67;;;-4.00;99.90;;;;;;5080209;28;20048;-61
2024/01/11 01:46:28;;;;;;;33.50;22.50;;;-4.00;99.90;;;;;;5064835;28;20105;-60
2024/01/11 01:48:57;;;;;;;35.30;22.52;;;-4.00;99.90;;;;;;5082262;28;20047;-60
2024/01/11 01:51:26;;;;;;;36.60;23.50;;;-4.00;99.90;;;;;;5084759;28;20054;-61
2024/01/11 01:53:56;;;;;;;36.83;22.08;;;-4.00;99.90;;;;;;5081800;28;20044;-61
2024/01/11 01:56:22;;;;;;;33.15;22.02;;;-4.00;99.90;;;;;;5083078;28;20703;-60
2024/01/11 01:58:51;;;;;;;36.97;22.48;;;-4.00;99.90;;;;;;5082142;28;20150;-61
2024/01/11 02:01:18;;;;;;;37.22;22.00;;;-4.00;99.90;;;;;;5082413;28;20106;-60
2024/01/11 02:03:45;;;;;;;33.63;21.58;;;-4.00;99.90;;;;;;5083000;28;20044;-60
2024/01/11 02:06:11;;;;;;;33.67;21.75;;;-4.00;99.90;;;;;;5067655;28;20046;-60
2024/01/11 02:08:38;;;;;;;35.65;22.25;;;-4.00;99.90;;;;;;5083347;28;20047;-59
2024/01/11 02:11:03;;;;;;;32.53;21.17;;;-4.00;99.90;;;;;;5080859;28;20071;-61
2024/01/11 02:13:29;;;;;;;37.63;22.42;;;-4.10;99.90;;;;;;5080062;28;20467;-60
2024/01/11 02:15:55;;;;;;;32.92;21.40;;;-4.10;99.90;;;;;;5082756;28;20130;-62
2024/01/11 02:18:20;;;;;;;35.28;22.45;;;-4.10;99.90;;;;;;5082459;28;20043;-60
2024/01/11 02:20:46;;;;;;;32.97;21.38;;;-4.20;99.90;;;;;;5082832;28;20072;-60
2024/01/11 02:23:18;;;;;;;34.90;22.35;;;-4.20;99.90;;;;;;5083689;28;20070;-60
2024/01/11 02:25:44;;;;;;;33.38;21.13;;;-4.20;99.90;;;;;;5078071;28;20046;-60
2024/01/11 02:28:11;;;;;;;32.75;20.73;;;-4.20;99.90;;;;;;5082164;28;20502;-60
2024/01/11 02:30:36;;;;;;;33.88;21.50;;;-4.20;99.90;;;;;;5080068;28;20876;-61
2024/01/11 02:33:04;;;;;;;34.45;21.65;;;-4.20;99.90;;;;;;5083743;28;20050;-60
2024/01/11 02:35:31;;;;;;;37.15;21.73;;;-4.20;99.90;;;;;;5079865;28;20123;-60
2024/01/11 02:37:58;;;;;;;34.45;21.98;;;-4.20;99.90;;;;;;5078957;28;20032;-60
2024/01/11 02:40:25;;;;;;;33.70;21.67;;;-4.20;99.90;;;;;;5080133;28;20490;-60
2024/01/11 02:42:51;;;;;;;35.70;21.52;;;-4.30;99.90;;;;;;5082372;28;20067;-60
2024/01/11 02:45:16;;;;;;;33.47;21.80;;;-4.30;99.90;;;;;;5081746;28;20402;-61
2024/01/11 02:47:42;;;;;;;36.00;22.02;;;-4.40;99.90;;;;;;5081926;28;20044;-60
2024/01/11 02:50:08;;;;;;;34.85;22.60;;;-4.40;99.90;;;;;;5080968;28;20127;-61
2024/01/11 02:52:34;;;;;;;33.08;20.88;;;-4.40;99.90;;;;;;5081123;28;20040;-59
2024/01/11 02:55:00;;;;;;;32.75;21.40;;;-4.40;99.90;;;;;;5082403;28;20039;-61
2024/01/11 02:57:25;;;;;;;34.10;21.73;;;-4.50;99.90;;;;;;5082547;28;20029;-60
2024/01/11 02:59:52;;;;;;;35.53;22.00;;;-4.50;99.90;;;;;;5083590;28;20546;-61
2024/01/11 03:02:17;;;;;;;35.28;21.88;;;-4.50;99.90;;;;;;5080870;28;20052;-61
2024/01/11 03:04:43;;;;;;;33.85;20.17;;;-4.50;99.90;;;;;;5081744;28;20403;-60
2024/01/11 03:07:09;;;;;;;36.25;21.98;;;-4.50;99.90;;;;;;5079580;28;20068;-60
2024/01/11 03:09:34;;;;;;;34.92;21.10;;;-4.50;99.90;;;;;;5081361;28;20067;-60
2024/01/11 03:12:00;;;;;;;34.75;21.55;;;-4.50;99.90;;;;;;5081657;28;20036;-60
2024/01/11 03:14:26;;;;;;;37.60;22.10;;;-4.50;99.90;;;;;;5065572;28;20519;-61
2024/01/11 03:16:51;;;;;;;35.25;21.92;;;-4.50;99.90;;;;;;5079312;28;20056;-61
2024/01/11 03:19:17;;;;;;;34.67;21.92;;;-4.60;99.90;;;;;;5082781;28;20076;-61
2024/01/11 03:21:46;;;;;;;32.53;20.92;;;-4.60;99.90;;;;;;5081572;28;20040;-60
2024/01/11 03:24:13;;;;;;;35.47;22.15;;;-4.60;99.90;;;;;;5081229;28;20514;-61
2024/01/11 03:26:38;;;;;;;37.03;21.48;;;-4.60;99.90;;;;;;5081526;28;20044;-60
2024/01/11 03:29:04;;;;;;;35.58;22.10;;;-4.60;99.90;;;;;;5080659;28;20085;-61
2024/01/11 03:31:29;;;;;;;34.88;22.27;;;-4.60;99.90;;;;;;5079844;28;20059;-60
2024/01/11 03:33:55;;;;;;;38.15;23.42;;;-4.60;99.90;;;;;;5081061;28;20403;-60
2024/01/11 03:36:24;;;;;;;34.58;21.70;;;-4.60;99.90;;;;;;5082957;28;20028;-60
2024/01/11 03:38:50;;;;;;;36.97;22.10;;;-4.60;99.90;;;;;;5079601;28;20092;-60
2024/01/11 03:41:16;;;;;;;36.47;21.73;;;-4.60;99.90;;;;;;5064859;28;20072;-60
2024/01/11 03:43:41;;;;;;;36.65;22.48;;;-4.60;99.90;;;;;;5081458;28;20032;-60
2024/01/11 03:46:07;;;;;;;34.83;21.25;;;-4.60;99.90;;;;;;5079549;28;20383;-61
2024/01/11 03:48:33;;;;;;;37.78;21.98;;;-4.60;99.90;;;;;;5077577;28;20486;-60
2024/01/11 03:50:58;;;;;;;35.72;22.38;;;-4.60;99.90;;;;;;5079826;28;20403;-60
2024/01/11 03:53:24;;;;;;;35.10;22.17;;;-4.60;99.90;;;;;;5063681;28;20117;-60
2024/01/11 03:55:50;;;;;;;32.63;21.30;;;-4.60;99.90;;;;;;5080290;28;20421;-59
2024/01/11 03:58:15;;;;;;;35.55;22.20;;;-4.60;99.90;;;;;;5080797;28;20035;-60
2024/01/11 04:00:41;;;;;;;35.55;21.95;;;-4.60;99.90;;;;;;5081878;28;20082;-60
2024/01/11 04:03:07;;;;;;;35.85;21.95;;;-4.60;99.90;;;;;;5082140;28;20569;-60
2024/01/11 04:05:32;;;;;;;37.42;23.30;;;-4.60;99.90;;;;;;5080181;28;20040;-61
2024/01/11 04:07:58;;;;;;;37.63;22.05;;;-4.50;99.90;;;;;;5078911;28;20051;-60
2024/01/11 04:10:23;;;;;;;39.33;23.80;;;-4.60;99.90;;;;;;5079051;28;20548;-60
2024/01/11 04:12:49;;;;;;;36.83;21.55;;;-4.60;99.90;;;;;;5079342;28;20052;-61
2024/01/11 04:15:15;;;;;;;37.58;22.27;;;-4.60;99.90;;;;;;5080086;28;20491;-60
2024/01/11 04:17:41;;;;;;;34.60;22.15;;;-4.60;99.90;;;;;;5082823;28;20040;-61
2024/01/11 04:20:08;;;;;;;37.83;23.02;;;-4.60;99.90;;;;;;5081134;28;20036;-60
2024/01/11 04:22:34;;;;;;;38.42;22.52;;;-4.60;99.90;;;;;;5080058;28;20044;-61
2024/01/11 04:25:00;;;;;;;38.10;22.05;;;-4.60;99.90;;;;;;5082601;28;20093;-60
2024/01/11 04:27:26;;;;;;;37.03;22.33;;;-4.60;99.90;;;;;;5080877;28;20060;-61
2024/01/11 04:29:51;;;;;;;36.40;21.60;;;-4.60;99.90;;;;;;5077970;28;20047;-61
2024/01/11 04:32:17;;;;;;;39.28;22.63;;;-4.70;99.90;;;;;;5079071;28;20054;-60
2024/01/11 04:34:43;;;;;;;36.63;22.02;;;-4.60;99.90;;;;;;5080971;28;20040;-60
2024/01/11 04:37:08;;;;;;;37.63;22.10;;;-4.60;99.90;;;;;;5080963;28;20502;-60
2024/01/11 04:39:34;;;;;;;33.03;21.90;;;-4.70;99.90;;;;;;5064247;28;20067;-61
2024/01/11 04:42:00;;;;;;;35.40;22.08;;;-4.70;99.90;;;;;;5080917;28;20043;-61
2024/01/11 04:44:26;;;;;;;37.15;22.38;;;-4.60;99.90;;;;;;5077841;28;20041;-60
2024/01/11 04:46:52;;;;;;;38.70;22.55;;;-4.70;99.90;;;;;;5081545;28;20048;-61
2024/01/11 04:49:17;;;;;;;37.35;23.02;;;-4.70;99.90;;;;;;5080413;28;20926;-62
2024/01/11 04:51:43;;;;;;;37.65;22.48;;;-4.70;99.90;;;;;;5079101;28;20040;-60
2024/01/11 04:54:08;;;;;;;38.80;23.25;;;-4.80;99.90;;;;;;5077202;28;20090;-60
2024/01/11 04:56:34;;;;;;;35.30;21.63;;;-4.80;99.90;;;;;;5080794;28;20570;-62
2024/01/11 04:59:00;;;;;;;39.42;21.85;;;-4.80;99.90;;;;;;5079519;28;20067;-61
2024/01/11 05:01:25;;;;;;;39.13;23.40;;;-4.80;99.90;;;;;;5080720;28;20186;-61
2024/01/11 05:03:51;;;;;;;36.42;22.25;;;-4.80;99.90;;;;;;5080403;28;20032;-60
2024/01/11 05:06:19;;;;;;;37.78;22.50;;;-4.80;99.90;;;;;;5077641;28;20074;-61
2024/01/11 05:08:47;;;;;;;35.03;20.42;;;-4.90;99.90;;;;;;5080127;28;20479;-61
2024/01/11 05:11:24;;;;;;;38.72;23.15;;;-4.80;99.90;;;;;;5079025;28;20185;-60
2024/01/11 05:13:50;;;;;;;38.60;23.00;;;-4.90;99.90;;;;;;5078372;28;20051;-61
2024/01/11 05:16:27;;;;;;;36.70;22.27;;;-4.80;99.90;;;;;;5077070;28;20477;-61
2024/01/11 05:18:54;;;;;;;36.85;22.10;;;-4.80;99.90;;;;;;5082444;28;20122;-61
2024/01/11 05:21:21;;;;;;;36.40;22.17;;;-4.80;99.90;;;;;;5081446;28;20044;-60
2024/01/11 05:23:47;;;;;;;41.83;23.85;;;-4.80;99.90;;;;;;5080819;28;20487;-60
2024/01/11 05:26:14;;;;;;;39.33;23.23;;;-4.80;99.90;;;;;;5080513;28;20047;-61
2024/01/11 05:28:40;;;;;;;39.47;23.65;;;-4.80;99.90;;;;;;5082579;28;20040;-61
2024/01/11 05:31:09;;;;;;;39.75;23.27;;;-4.80;99.90;;;;;;5082882;28;20528;-60
2024/01/11 05:33:34;;;;;;;37.95;22.48;;;-4.80;99.90;;;;;;5084472;28;20456;-61
2024/01/11 05:36:00;;;;;;;43.20;24.67;;;-4.80;99.90;;;;;;5080314;28;20051;-61
2024/01/11 05:38:25;;;;;;;40.92;23.75;;;-4.70;99.90;;;;;;5067167;28;20485;-61
2024/01/11 05:40:51;;;;;;;39.75;23.92;;;-4.70;99.90;;;;;;5084798;28;20040;-61
2024/01/11 05:43:17;;;;;;;40.15;22.90;;;-4.70;99.90;;;;;;5084744;28;20043;-61
2024/01/11 05:45:42;;;;;;;41.72;23.65;;;-4.70;99.90;;;;;;5083355;28;20032;-62
2024/01/11 05:48:10;;;;;;;40.20;23.52;;;-4.70;99.90;;;;;;5081290;28;20106;-61
2024/01/11 05:50:35;;;;;;;40.00;23.50;;;-4.70;99.90;;;;;;5081619;28;20050;-61
2024/01/11 05:53:01;;;;;;;39.30;23.25;;;-4.70;99.90;;;;;;5083348;28;20028;-61
2024/01/11 05:55:27;;;;;;;40.63;23.90;;;-4.70;99.90;;;;;;5082658;28;20040;-61
2024/01/11 05:57:52;;;;;;;40.45;24.00;;;-4.70;99.90;;;;;;5082096;28;20036;-61
2024/01/11 06:00:18;;;;;;;40.70;24.02;;;-4.60;99.90;;;;;;5084386;28;20149;-61
2024/01/11 06:02:44;;;;;;;43.00;24.83;;;-4.60;99.90;;;;;;5082536;28;20060;-61
2024/01/11 06:05:09;;;;;;;43.47;26.17;;;-4.60;99.90;;;;;;5084756;28;20044;-60
2024/01/11 06:07:35;;;;;;;38.28;23.17;;;-4.50;99.90;;;;;;5079518;28;20509;-61
2024/01/11 06:10:02;;;;;;;39.55;24.50;;;-4.50;99.90;;;;;;5080215;28;20097;-62
2024/01/11 06:12:28;;;;;;;39.92;23.35;;;-4.50;99.90;;;;;;5080693;28;20052;-61
2024/01/11 06:14:54;;;;;;;39.78;23.95;;;-4.50;99.90;;;;;;5082803;28;20428;-61
2024/01/11 06:17:20;;;;;;;40.63;24.02;;;-4.50;99.90;;;;;;5082808;28;20126;-61
2024/01/11 06:19:45;;;;;;;42.20;24.50;;;-4.50;99.90;;;;;;5082957;28;20036;-61
2024/01/11 06:22:11;;;;;;;45.15;25.15;;;-4.50;99.90;;;;;;5085051;28;20032;-61
2024/01/11 06:24:37;;;;;;;38.72;23.02;;;-4.50;99.90;;;;;;5080627;28;20439;-61
2024/01/11 06:27:03;;;;;;;40.72;23.90;;;-4.40;99.90;;;;;;5080926;28;20146;-62
2024/01/11 06:29:28;;;;;;;46.17;26.27;;;-4.30;99.90;;;;;;5080049;28;20044;-61
2024/01/11 06:31:54;;;;;;;44.28;25.17;;;-4.30;99.90;;;;;;5080976;28;20046;-61
2024/01/11 06:34:19;;;;;;;44.15;24.55;;;-4.20;99.90;;;;;;5081867;28;20032;-61
2024/01/11 06:36:45;;;;;;;44.42;26.35;;;-4.20;99.90;;;;;;5082143;28;20119;-61
2024/01/11 06:39:12;;;;;;;41.85;24.77;;;-4.20;99.90;;;;;;5080404;28;20457;-60
2024/01/11 06:41:38;;;;;;;42.40;25.67;;;-4.00;99.90;;;;;;5081941;28;20082;-60
2024/01/11 06:44:04;;;;;;;42.05;26.02;;;-4.00;99.90;;;;;;5062755;28;20486;-61
2024/01/11 06:46:30;;;;;;;44.63;26.50;;;-4.00;99.90;;;;;;5080238;28;20047;-61
2024/01/11 06:48:56;;;;;;;45.67;26.55;;;-3.90;99.90;;;;;;5078692;28;20071;-60
2024/01/11 06:51:23;;;;;;;45.40;26.88;;;-3.80;99.90;;;;;;5075719;28;20083;-61
2024/01/11 06:53:49;;;;;;;45.15;26.63;;;-3.70;99.90;;;;;;5073053;28;20398;-61
2024/01/11 06:56:19;;;;;;;45.25;26.38;;;-3.60;99.90;;;;;;5069597;28;20044;-60
2024/01/11 06:58:46;;;;;;;43.10;26.40;;;-3.60;99.90;;;;;;5078880;28;20032;-61
2024/01/11 07:01:12;;;;;;;42.05;26.42;;;-3.50;99.90;;;;;;5080543;28;20045;-61
2024/01/11 07:03:38;;;;;;;43.28;26.05;;;-3.50;99.90;;;;;;5075679;28;20411;-60
2024/01/11 07:06:06;;;;;;;45.47;26.67;;;-3.50;99.90;;;;;;5077623;28;20127;-61
2024/01/11 07:08:32;;;;;;;46.20;28.25;;;-3.50;99.90;;;;;;5082663;28;20048;-61
2024/01/11 07:11:00;;;;;;;46.47;27.73;;;-3.40;99.90;;;;;;5073283;28;20055;-60
2024/01/11 07:13:26;;;;;;;47.80;26.73;;;-3.30;99.90;;;;;;5057121;28;20036;-61
2024/01/11 07:15:55;;;;;;;46.50;27.60;;;-3.30;99.90;;;;;;5071362;28;20044;-60
2024/01/11 07:18:21;;;;;;;47.08;27.17;;;-3.30;99.90;;;;;;5082391;28;20051;-61
2024/01/11 07:20:47;;;;;;;45.47;26.42;;;-3.20;99.90;;;;;;5079981;28;20042;-62
2024/01/11 07:23:14;;;;;;;46.67;26.92;;;-3.20;99.90;;;;;;5080616;28;20395;-62
2024/01/11 07:25:40;;;;;;;43.67;26.05;;;-3.20;99.90;;;;;;5074832;28;20040;-60
2024/01/11 07:28:07;;;;;;;45.63;26.67;;;-3.20;99.90;;;;;;5075825;28;20048;-61
2024/01/11 07:30:32;;;;;;;45.72;27.20;;;-3.10;99.90;;;;;;5077378;28;20176;-61
2024/01/11 07:32:58;;;;;;;43.65;25.92;;;-3.10;99.90;;;;;;5077842;28;20076;-61
2024/01/11 07:35:23;;;;;;;43.40;26.75;;;-3.10;99.90;;;;;;5078443;28;20036;-61
2024/01/11 07:37:49;;;;;;;43.50;26.45;;;-3.10;99.90;;;;;;5073388;28;20510;-61
2024/01/11 07:40:16;;;;;;;43.78;25.95;;;-3.10;99.90;;;;;;5073925;28;20036;-62
2024/01/11 07:42:43;;;;;;;43.47;26.15;;;-3.00;99.90;;;;;;5079421;28;20040;-62
2024/01/11 07:45:13;;;;;;;42.00;26.15;;;-2.90;99.90;;;;;;5071873;28;20505;-62
2024/01/11 07:47:39;;;;;;;44.53;26.52;;;-2.90;99.90;;;;;;5075158;28;20552;-61
2024/01/11 07:50:06;;;;;;;44.20;26.52;;;-2.80;99.90;;;;;;5074657;28;20040;-61
2024/01/11 07:52:32;;;;;;;45.60;26.67;;;-2.80;99.90;;;;;;5063720;28;20052;-61
2024/01/11 07:55:06;;;;;;;43.50;25.60;;;-2.80;99.90;;;;;;5073784;28;20048;-62
2024/01/11 07:57:32;;;;;;;42.72;27.10;;;-2.70;99.90;;;;;;5071907;28;20041;-62
2024/01/11 07:59:59;;;;;;;43.83;26.33;;;-2.60;99.90;;;;;;5076390;28;20047;-62
2024/01/11 08:02:25;;;;;;;43.33;26.05;;;-2.60;99.90;;;;;;5081297;28;20105;-60
2024/01/11 08:04:50;;;;;;;41.90;26.33;;;-2.50;99.90;;;;;;5076816;28;20037;-62
2024/01/11 08:07:16;;;;;;;41.67;25.80;;;-2.60;99.90;;;;;;5071893;28;20044;-62
2024/01/11 08:09:45;;;;;;;45.33;26.52;;;-2.50;99.90;;;;;;5077001;28;20082;-61
2024/01/11 08:12:16;;;;;;;40.17;24.88;;;-2.50;99.90;;;;;;5080222;28;20102;-61
2024/01/11 08:14:42;;;;;;;44.80;27.20;;;-2.50;99.90;;;;;;5078090;28;20393;-61
2024/01/11 08:17:08;;;;;;;44.65;27.17;;;-2.50;99.90;;;;;;5072137;28;20045;-63
2024/01/11 08:19:34;;;;;;;43.17;27.20;;;-2.40;99.90;;;;;;5076780;28;20131;-62
2024/01/11 08:22:00;;;;;;;43.92;27.08;;;-2.50;99.90;;;;;;5074304;28;20032;-62
2024/01/11 08:24:25;;;;;;;46.08;26.40;;;-2.40;99.90;;;;;;5081456;28;20036;-61
2024/01/11 08:26:52;;;;;;;43.90;27.20;;;-2.40;99.90;;;;;;5081262;28;20044;-61
2024/01/11 08:29:22;;;;;;;46.30;27.02;;;-2.30;99.90;;;;;;5078343;28;20060;-61
2024/01/11 08:31:47;;;;;;;45.70;27.88;;;-2.30;99.90;;;;;;5067044;28;20119;-61
2024/01/11 08:34:13;;;;;;;42.53;27.02;;;-2.20;99.90;;;;;;5061438;28;20128;-62
2024/01/11 08:36:39;;;;;;;45.67;27.10;;;-2.10;99.90;;;;;;5070573;28;20045;-61
2024/01/11 08:39:05;;;;;;;41.00;25.90;;;-2.10;99.90;;;;;;5067497;28;20403;-60
2024/01/11 08:41:32;;;;;;;43.45;26.50;;;-2.00;99.90;;;;;;5081162;28;20040;-62
2024/01/11 08:43:58;;;;;;;45.75;27.38;;;-2.00;99.90;;;;;;5088355;28;20043;-62
2024/01/11 08:46:25;;;;;;;44.55;27.20;;;-2.00;99.90;;;;;;5090101;28;20054;-62
2024/01/11 08:48:52;;;;;;;45.08;27.15;;;-2.00;99.90;;;;;;5090323;28;20487;-61
2024/01/11 08:51:17;;;;;;;42.10;26.92;;;-2.00;99.90;;;;;;5090233;28;20055;-62
2024/01/11 08:53:43;;;;;;;41.90;26.90;;;-1.90;99.90;;;;;;5088502;28;20060;-62
2024/01/11 08:56:09;;;;;;;45.78;25.98;;;-1.90;99.90;;;;;;5088614;28;20384;-62
2024/01/11 08:58:36;;;;;;;45.10;26.67;;;-1.80;99.90;;;;;;5092443;28;20043;-61
2024/01/11 09:01:02;;;;;;;43.58;25.63;;;-1.80;99.90;;;;;;5094181;28;20068;-62
2024/01/11 09:03:28;;;;;;;41.97;26.10;;;-1.80;99.90;;;;;;5093786;28;20414;-61
2024/01/11 09:05:57;;;;;;;43.03;26.30;;;-1.70;99.90;;;;;;5092798;28;20047;-62
2024/01/11 09:08:23;;;;;;;42.75;25.83;;;-1.70;99.90;;;;;;5092411;28;20051;-62
2024/01/11 09:10:48;;;;;;;41.97;25.80;;;-1.60;99.90;;;;;;5093061;28;20048;-60
2024/01/11 09:13:15;;;;;;;43.70;26.05;;;-1.60;99.90;;;;;;5092242;28;20058;-62
2024/01/11 09:15:41;;;;;;;44.88;27.35;;;-1.60;99.90;;;;;;5092321;28;20056;-61
2024/01/11 09:18:07;;;;;;;42.30;26.60;;;-1.50;99.90;;;;;;5093797;28;20066;-61
2024/01/11 09:20:33;;;;;;;45.78;28.15;;;-1.50;99.90;;;;;;5092093;28;20039;-62
2024/01/11 09:23:02;;;;;;;42.67;26.15;;;-1.60;99.90;;;;;;5092374;28;20025;-62
2024/01/11 09:25:28;;;;;;;47.72;28.17;;;-1.60;99.90;;;;;;5092066;28;20040;-62
2024/01/11 09:27:53;;;;;;;47.65;29.08;;;-1.60;99.90;;;;;;5093800;28;20127;-61
2024/01/11 09:30:19;;;;;;;41.83;26.30;;;-1.60;99.90;;;;;;5093378;28;20032;-62
2024/01/11 09:32:44;;;;;;;43.20;27.42;;;-1.50;99.90;;;;;;5093428;28;20074;-60
2024/01/11 09:35:10;;;;;;;46.58;28.83;;;-1.50;99.90;;;;;;5091979;28;20064;-61
2024/01/11 09:37:36;;;;;;;43.80;27.17;;;-1.50;99.90;;;;;;5091925;28;20050;-62
2024/01/11 09:40:02;;;;;;;44.22;27.45;;;-1.50;99.90;;;;;;5093318;28;20490;-62
2024/01/11 09:42:29;;;;;;;44.70;27.55;;;-1.50;99.90;;;;;;5091800;28;20410;-61
2024/01/11 09:44:56;;;;;;;41.47;26.80;;;-1.40;99.90;;;;;;5093380;28;20043;-61
2024/01/11 09:47:23;;;;;;;42.28;26.55;;;-1.40;99.90;;;;;;5093037;28;20088;-63
2024/01/11 09:49:53;;;;;;;41.15;25.80;;;-1.30;99.90;;;;;;5092004;28;20051;-62
2024/01/11 09:52:22;;;;;;;43.75;26.48;;;-1.30;99.90;;;;;;5091691;28;20051;-61
2024/01/11 09:54:47;;;;;;;42.00;27.02;;;-1.20;99.90;;;;;;5093135;28;20157;-61
2024/01/11 09:57:19;;;;;;;45.20;27.98;;;-1.10;99.90;;;;;;5091600;28;20118;-62
2024/01/11 09:59:45;;;;;;;41.50;26.10;;;-1.10;99.90;;;;;;5092640;28;20043;-61
2024/01/11 10:02:12;;;;;;;43.72;26.85;;;-1.00;99.90;;;;;;5091995;28;20475;-61
2024/01/11 10:04:37;;;;;;;43.42;27.30;;;-1.00;99.90;;;;;;5092687;28;20039;-61
2024/01/11 10:07:06;;;;;;;44.55;27.08;;;-0.90;99.90;;;;;;5091634;28;20040;-61
2024/01/11 10:09:31;;;;;;;44.38;27.25;;;-1.00;99.90;;;;;;5091003;28;20036;-62
2024/01/11 10:11:58;;;;;;;44.55;27.52;;;-0.90;99.90;;;;;;5091827;28;20054;-61
2024/01/11 10:14:24;;;;;;;42.20;26.08;;;-0.90;99.90;;;;;;5091285;28;20044;-62
2024/01/11 10:16:50;;;;;;;41.63;25.70;;;-0.80;99.90;;;;;;5092314;28;20131;-62
2024/01/11 10:19:16;;;;;;;48.10;27.48;;;-0.80;99.90;;;;;;5092942;28;20075;-62
2024/01/11 10:21:42;;;;;;;43.58;26.80;;;-0.70;99.90;;;;;;5092384;28;20040;-61
2024/01/11 10:24:07;;;;;;;42.78;27.02;;;-0.70;99.90;;;;;;5092580;28;20078;-63
2024/01/11 10:26:33;;;;;;;43.75;27.42;;;-0.70;99.90;;;;;;5091004;28;20059;-62
2024/01/11 10:29:00;;;;;;;48.75;27.27;;;-0.70;99.90;;;;;;5090981;28;20119;-61
2024/01/11 10:31:28;;;;;;;43.95;28.38;;;-0.70;99.90;;;;;;5091209;28;20161;-62
2024/01/11 10:33:54;;;;;;;44.28;28.80;;;-0.60;99.90;;;;;;5092496;28;20032;-61
2024/01/11 10:36:20;;;;;;;42.63;26.33;;;-0.50;99.90;;;;;;5092263;28;20036;-62
2024/01/11 10:38:47;;;;;;;42.63;26.83;;;-0.50;99.90;;;;;;5091998;28;20044;-62
2024/01/11 10:41:18;;;;;;;42.63;27.23;;;-0.40;99.90;;;;;;5092327;28;20107;-62
2024/01/11 10:43:45;;;;;;;44.03;28.80;;;-0.40;99.90;;;;;;5090963;28;20792;-61
2024/01/11 10:46:12;;;;;;;45.00;28.02;;;-0.30;99.90;;;;;;5092236;28;20043;-61
2024/01/11 10:48:39;;;;;;;42.05;26.88;;;-0.30;99.90;;;;;;5090694;28;20059;-62
2024/01/11 10:51:09;;;;;;;41.95;27.45;;;-0.30;99.90;;;;;;5090810;28;20044;-60
2024/01/11 10:53:41;;;;;;;40.88;25.83;;;;;;;;;;5090585;28;20122;-62
2024/01/11 10:56:09;;;;;;;41.92;27.25;;;-0.20;99.90;;;;;;5091881;28;20471;-60
2024/01/11 10:58:35;;;;;;;44.45;28.20;;;-0.10;99.90;;;;;;5092129;28;20569;-62
2024/01/11 11:01:04;;;;;;;43.88;28.02;;;-0.10;99.90;;;;;;5090664;28;20040;-62
2024/01/11 11:03:31;;;;;;;47.03;29.88;;;0.00;99.90;;;;;;5090853;28;20042;-62
2024/01/11 11:05:58;;;;;;;49.55;29.77;;;0.00;99.90;;;;;;5090638;28;20052;-62
2024/01/11 11:08:26;;;;;;;63.95;41.17;;;0.00;99.90;;;;;;5091910;28;20036;-61
2024/01/11 11:10:59;;;;;;;89.95;58.25;;;0.00;99.90;;;;;;5091703;28;20039;-62
2024/01/11 11:13:26;;;;;;;79.40;50.58;;;0.00;99.90;;;;;;5090876;28;20518;-62
2024/01/11 11:15:53;;;;;;;58.67;38.42;;;0.00;99.90;;;;;;5091256;28;20101;-61
2024/01/11 11:18:19;;;;;;;56.63;35.67;;;0.00;99.90;;;;;;5091508;28;20048;-62
2024/01/11 11:20:45;;;;;;;58.53;36.95;;;0.00;99.90;;;;;;5089376;28;20043;-61
2024/01/11 11:23:14;;;;;;;63.22;42.35;;;0.10;99.90;;;;;;5091382;28;20528;-62
2024/01/11 11:25:40;;;;;;;78.20;51.85;;;0.10;99.90;;;;;;5090520;28;20051;-61
2024/01/11 11:28:07;;;;;;;71.10;49.28;;;0.10;99.90;;;;;;5061821;28;21155;-61
2024/01/11 11:30:33;;;;;;;71.40;47.28;;;0.20;99.90;;;;;;5071133;28;20036;-61
2024/01/11 11:33:15;;;;;;;59.63;40.20;;;0.20;99.90;;;;;;5069833;28;20544;-61
2024/01/11 11:35:42;;;;;;;56.25;37.45;;;0.30;99.90;;;;;;5069625;28;20114;-62
2024/01/11 11:38:08;;;;;;;48.90;32.50;;;0.30;99.90;;;;;;5071138;28;20111;-61
2024/01/11 11:40:42;;;;;;;47.83;28.83;;;0.30;99.90;;;;;;5071276;28;20032;-62
2024/01/11 11:43:09;;;;;;;42.88;27.95;;;0.40;99.90;;;;;;5069600;28;20051;-61
2024/01/11 11:45:36;;;;;;;43.63;27.13;;;0.50;99.90;;;;;;5069498;28;20114;-62
2024/01/11 11:48:22;;;;;;;43.80;27.40;;;0.50;99.90;;;;;;5070633;28;20079;-61
2024/01/11 11:51:00;;;;;;;46.22;29.23;;;0.60;99.90;;;;;;5069226;28;20052;-61
2024/01/11 11:53:26;;;;;;;44.72;28.25;;;0.60;99.90;;;;;;5070883;28;20479;-63
2024/01/11 11:55:52;;;;;;;42.17;28.70;;;0.70;99.90;;;;;;5070521;28;20037;-62
2024/01/11 11:58:18;;;;;;;44.58;28.42;;;0.60;99.90;;;;;;5070710;28;20086;-61
2024/01/11 12:00:44;;;;;;;43.60;28.20;;;0.70;99.90;;;;;;5068857;28;20051;-62
2024/01/11 12:03:10;;;;;;;41.45;25.83;;;0.70;99.90;;;;;;5069012;28;20080;-61
2024/01/11 12:05:38;;;;;;;41.47;25.42;;;0.70;99.90;;;;;;5070693;28;20542;-63
2024/01/11 12:08:04;;;;;;;40.10;26.27;;;0.70;99.90;;;;;;5052708;28;20580;-62
2024/01/11 12:10:30;;;;;;;37.78;24.83;;;0.70;99.90;;;;;;5069724;28;20127;-62
2024/01/11 12:12:55;;;;;;;42.90;25.67;;;0.80;99.90;;;;;;5069127;28;20135;-62
2024/01/11 12:15:21;;;;;;;39.20;23.73;;;0.80;99.90;;;;;;5070204;28;20083;-62
2024/01/11 12:17:46;;;;;;;35.85;23.75;;;0.90;99.90;;;;;;5070244;28;20057;-62
2024/01/11 12:20:12;;;;;;;39.95;24.52;;;0.90;99.90;;;;;;5052068;28;20048;-61
2024/01/11 12:22:38;;;;;;;36.00;23.92;;;0.90;99.90;;;;;;5070542;28;20041;-62
2024/01/11 12:25:04;;;;;;;39.35;24.52;;;0.90;99.90;;;;;;5069068;28;20139;-62